createdAt,value
2022-08-17T00:01:51.335Z,101111.22
2022-08-17T00:04:22.326Z,101110.13
2022-08-17T00:06:51.536Z,101101.16
2022-08-17T00:09:26.218Z,101096.44
2022-08-17T00:12:35.568Z,101105.06
2022-08-17T00:14:44.265Z,101088.53
2022-08-17T00:17:14.198Z,101085.75
2022-08-17T00:19:43.273Z,101094.41
2022-08-17T00:22:34.815Z,101088.81
2022-08-17T00:25:09.447Z,101102.81
2022-08-17T00:27:39.936Z,101099.41
2022-08-17T00:30:11.823Z,101088.53
2022-08-17T00:33:13.886Z,101080.16
2022-08-17T00:35:44.727Z,101079.03
2022-08-17T00:38:17.539Z,101082.66
2022-08-17T00:40:50.129Z,101080.69
2022-08-17T00:43:22.517Z,101088.78
2022-08-17T00:45:51.071Z,101090.47
2022-08-17T00:48:29.101Z,101088.78
2022-08-17T00:51:02.968Z,101096.06
2022-08-17T00:53:43.020Z,101095.53
2022-08-17T00:56:30.388Z,101095.22
2022-08-17T00:59:03.901Z,101091.53
2022-08-17T01:01:33.374Z,101105.50
2022-08-17T01:04:03.453Z,101100.78
2022-08-17T01:06:32.370Z,101101.03
2022-08-17T01:09:03.485Z,101100.22
2022-08-17T01:11:36.208Z,101092.31
2022-08-17T01:14:04.843Z,101090.88
2022-08-17T01:16:33.692Z,101083.28
2022-08-17T01:19:04.967Z,101084.13
2022-08-17T01:21:42.453Z,101075.78
2022-08-17T01:24:12.122Z,101073.81
2022-08-17T01:26:41.740Z,101071.84
2022-08-17T01:29:10.356Z,101078.88
2022-08-17T01:31:43.144Z,101076.91
2022-08-17T01:34:13.457Z,101076.91
2022-08-17T01:36:44.710Z,101077.16
2022-08-17T01:39:22.460Z,101076.06
2022-08-17T01:41:52.834Z,101076.00
2022-08-17T01:44:22.965Z,101078.81
2022-08-17T01:46:51.249Z,101081.88
2022-08-17T01:49:20.769Z,101082.13
2022-08-17T01:51:49.408Z,101083.81
2022-08-17T01:54:20.734Z,101082.13
2022-08-17T01:56:51.914Z,101084.91
2022-08-17T01:59:21.387Z,101076.81
2022-08-17T02:01:49.458Z,101081.56
2022-08-17T02:04:21.677Z,101078.50
2022-08-17T02:06:54.391Z,101079.34
2022-08-17T02:09:29.534Z,101077.38
2022-08-17T02:12:37.233Z,101074.53
2022-08-17T02:14:59.370Z,101075.91
2022-08-17T02:17:31.587Z,101075.28
2022-08-17T02:20:02.520Z,101081.38
2022-08-17T02:22:33.962Z,101085.53
2022-08-17T02:25:06.950Z,101079.06
2022-08-17T02:27:41.297Z,101074.59
2022-08-17T02:31:00.886Z,101084.06
2022-08-17T02:33:06.346Z,101091.06
2022-08-17T02:35:44.323Z,101085.16
2022-08-17T02:38:16.706Z,101078.16
2022-08-17T02:40:48.076Z,101079.00
2022-08-17T02:43:23.666Z,101079.84
2022-08-17T02:45:52.660Z,101079.56
2022-08-17T02:48:28.020Z,101078.16
2022-08-17T02:51:00.327Z,101076.75
2022-08-17T02:53:36.259Z,101074.47
2022-08-17T02:56:07.751Z,101080.06
2022-08-17T02:58:36.681Z,101085.38
2022-08-17T03:01:07.732Z,101083.69
2022-08-17T03:03:36.763Z,101090.63
2022-08-17T03:06:05.907Z,101083.38
2022-08-17T03:08:34.160Z,101089.28
2022-08-17T03:11:02.244Z,101082.25
2022-08-17T03:13:31.983Z,101083.94
2022-08-17T03:15:59.942Z,101088.69
2022-08-17T03:18:28.129Z,101087.03
2022-08-17T03:20:58.558Z,101081.13
2022-08-17T03:23:28.009Z,101085.00
2022-08-17T03:25:59.737Z,101077.47
2022-08-17T03:28:28.359Z,101084.13
2022-08-17T03:30:57.997Z,101085.78
2022-08-17T03:33:25.939Z,101090.78
2022-08-17T03:35:53.937Z,101089.94
2022-08-17T03:38:22.043Z,101087.75
2022-08-17T03:40:56.412Z,101075.13
2022-08-17T03:43:30.142Z,101074.56
2022-08-17T03:46:27.723Z,101075.94
2022-08-17T03:49:19.119Z,101062.81
2022-08-17T03:52:04.473Z,101063.50
2022-08-17T03:54:49.854Z,101063.06
2022-08-17T03:57:19.420Z,101064.38
2022-08-17T03:59:48.018Z,101064.09
2022-08-17T04:02:25.924Z,101060.56
2022-08-17T04:04:55.570Z,101061.66
2022-08-17T04:07:27.483Z,101068.66
2022-08-17T04:09:57.873Z,101070.34
2022-08-17T04:12:30.861Z,101079.06
2022-08-17T04:14:59.209Z,101075.09
2022-08-17T04:17:30.654Z,101077.69
2022-08-17T04:19:58.999Z,101077.13
2022-08-17T04:22:30.803Z,101082.03
2022-08-17T04:25:08.553Z,101083.50
2022-08-17T04:27:37.636Z,101086.03
2022-08-17T04:30:08.613Z,101089.00
2022-08-17T04:35:32.943Z,101093.88
2022-08-17T04:38:01.481Z,101098.34
2022-08-17T04:40:47.704Z,101100.09
2022-08-17T04:43:19.312Z,101103.22
2022-08-17T04:45:55.093Z,101099.34
2022-08-17T04:48:27.862Z,101095.47
2022-08-17T04:51:11.812Z,101096.59
2022-08-17T04:53:41.317Z,101088.44
2022-08-17T04:56:19.061Z,101092.47
2022-08-17T04:58:50.934Z,101104.13
2022-08-17T05:01:23.320Z,101086.91
2022-08-17T05:03:53.813Z,101090.25
2022-08-17T05:06:24.455Z,101093.91
2022-08-17T05:08:52.750Z,101088.31
2022-08-17T05:11:21.212Z,101091.09
2022-08-17T05:13:51.328Z,101098.06
2022-08-17T05:16:21.283Z,101109.91
2022-08-17T05:18:50.078Z,101107.81
2022-08-17T05:21:20.157Z,101110.34
2022-08-17T05:23:56.867Z,101113.19
2022-08-17T05:26:27.469Z,101115.66
2022-08-17T05:29:02.775Z,101114.31
2022-08-17T05:31:32.177Z,101115.75
2022-08-17T05:34:04.544Z,101117.78
2022-08-17T05:36:43.442Z,101114.13
2022-08-17T05:39:21.895Z,101115.41
2022-08-17T05:41:53.468Z,101110.59
2022-08-17T05:44:26.017Z,101112.28
2022-08-17T05:46:55.754Z,101105.63
2022-08-17T05:49:29.243Z,101104.78
2022-08-17T05:52:18.843Z,101112.63
2022-08-17T05:55:19.895Z,101110.94
2022-08-17T05:58:10.394Z,101115.09
2022-08-17T06:00:50.907Z,101134.53
2022-08-17T06:03:53.437Z,101133.41
2022-08-17T06:06:31.485Z,101134.41
2022-08-17T06:09:31.607Z,101136.47
2022-08-17T06:12:32.587Z,101134.03
2022-08-17T06:15:20.280Z,101132.91
2022-08-17T06:17:56.208Z,101145.03
2022-08-17T06:20:28.054Z,101158.53
2022-08-17T06:23:07.116Z,101152.97
2022-08-17T06:25:48.724Z,101154.72
2022-08-17T06:28:32.165Z,101147.22
2022-08-17T06:31:07.762Z,101147.81
2022-08-17T06:33:41.551Z,101140.53
2022-08-17T06:36:30.612Z,101140.03
2022-08-17T06:39:23.127Z,101147.88
2022-08-17T06:42:06.642Z,101143.66
2022-08-17T06:44:51.120Z,101155.50
2022-08-17T06:47:28.537Z,101159.56
2022-08-17T06:50:10.973Z,101167.50
2022-08-17T06:52:52.527Z,101166.28
2022-08-17T06:55:27.615Z,101166.19
2022-08-17T06:58:05.350Z,101169.84
2022-08-17T07:00:49.067Z,101175.75
2022-08-17T07:03:37.713Z,101170.84
2022-08-17T07:06:12.443Z,101170.84
2022-08-17T07:08:50.712Z,101175.72
2022-08-17T07:11:27.206Z,101183.69
2022-08-17T07:14:03.867Z,101175.75
2022-08-17T07:16:39.830Z,101178.34
2022-08-17T07:19:10.758Z,101171.25
2022-08-17T07:21:52.370Z,101180.47
2022-08-17T07:24:31.763Z,101172.19
2022-08-17T07:27:12.555Z,101177.81
2022-08-17T07:29:44.955Z,101177.47
2022-08-17T07:32:19.003Z,101171.81
2022-08-17T07:35:06.597Z,101170.31
2022-08-17T07:37:43.181Z,101180.25
2022-08-17T07:40:28.542Z,101178.19
2022-08-17T07:43:24.426Z,101176.59
2022-08-17T07:46:23.924Z,101189.09
2022-08-17T07:49:00.098Z,101188.84
2022-08-17T07:51:31.928Z,101186.41
2022-08-17T07:54:14.561Z,101187.53
2022-08-17T07:56:51.365Z,101189.19
2022-08-17T07:59:25.238Z,101194.03
2022-08-17T08:02:07.198Z,101191.38
2022-08-17T08:04:59.735Z,101201.88
2022-08-17T08:07:40.389Z,101194.47
2022-08-17T08:10:14.007Z,101185.75
2022-08-17T08:12:46.722Z,101192.66
2022-08-17T08:15:20.332Z,101186.03
2022-08-17T08:17:55.827Z,101178.53
2022-08-17T08:20:51.358Z,101170.75
2022-08-17T08:23:37.525Z,101173.97
2022-08-17T08:26:23.185Z,101178.56
2022-08-17T08:29:02.498Z,101189.34
2022-08-17T08:31:49.469Z,101181.84
2022-08-17T08:35:00.548Z,101179.31
2022-08-17T08:37:40.619Z,101185.25
2022-08-17T08:40:45.108Z,101183.53
2022-08-17T08:43:28.829Z,101179.06
2022-08-17T08:46:08.272Z,101188.63
2022-08-17T08:49:11.894Z,101200.81
2022-08-17T08:51:51.889Z,101202.09
2022-08-17T08:54:35.726Z,101198.53
2022-08-17T08:57:33.955Z,101202.63
2022-08-17T09:00:15.007Z,101207.94
2022-08-17T09:03:06.579Z,101206.03
2022-08-17T09:05:54.962Z,101211.44
2022-08-17T09:08:32.499Z,101208.00
2022-08-17T09:11:11.483Z,101222.09
2022-08-17T09:13:54.474Z,101227.50
2022-08-17T09:16:30.343Z,101227.94
2022-08-17T09:19:07.161Z,101232.31
2022-08-17T09:21:47.760Z,101241.63
2022-08-17T09:24:26.316Z,101247.97
2022-08-17T09:27:04.849Z,101245.91
2022-08-17T09:29:37.494Z,101242.50
2022-08-17T09:32:17.890Z,101228.88
2022-08-17T09:34:54.865Z,101228.47
2022-08-17T09:37:31.198Z,101214.06
2022-08-17T09:40:13.770Z,101206.00
2022-08-17T09:42:55.976Z,101201.50
2022-08-17T09:45:32.186Z,101205.38
2022-08-17T09:48:07.841Z,101207.66
2022-08-17T09:51:05.453Z,101211.97
2022-08-17T09:53:33.837Z,101216.69
2022-08-17T09:56:19.806Z,101215.78
2022-08-17T09:59:18.851Z,101210.38
2022-08-17T10:01:53.931Z,101203.66
2022-08-17T10:04:34.016Z,101206.34
2022-08-17T10:07:11.357Z,101202.13
2022-08-17T10:09:50.162Z,101207.94
2022-08-17T10:12:30.264Z,101204.91
2022-08-17T10:15:19.575Z,101212.00
2022-08-17T10:18:08.177Z,101212.78
2022-08-17T10:20:47.398Z,101215.25
2022-08-17T10:23:40.899Z,101208.38
2022-08-17T10:26:19.916Z,101207.25
2022-08-17T10:28:55.400Z,101212.31
2022-08-17T10:31:35.648Z,101206.50
2022-08-17T10:34:41.184Z,101208.94
2022-08-17T10:37:28.749Z,101215.72
2022-08-17T10:40:09.317Z,101213.97
2022-08-17T10:42:50.851Z,101216.69
2022-08-17T10:45:27.281Z,101204.09
2022-08-17T10:48:06.084Z,101214.31
2022-08-17T10:50:58.665Z,101213.66
2022-08-17T10:53:54.673Z,101218.03
2022-08-17T10:56:45.790Z,101222.91
2022-08-17T10:59:49.281Z,101212.47
2022-08-17T11:02:26.180Z,101212.63
2022-08-17T11:05:23.115Z,101209.28
2022-08-17T11:08:17.429Z,101204.25
2022-08-17T11:10:58.120Z,101211.41
2022-08-17T11:13:41.887Z,101217.34
2022-08-17T11:16:34.822Z,101202.84
2022-08-17T11:19:45.142Z,101205.31
2022-08-17T11:22:46.286Z,101205.81
2022-08-17T11:25:21.630Z,101213.91
2022-08-17T11:27:54.548Z,101207.22
2022-08-17T11:30:49.276Z,101205.56
2022-08-17T11:33:58.551Z,101201.84
2022-08-17T11:36:40.063Z,101197.97
2022-08-17T11:39:30.597Z,101198.78
2022-08-17T11:42:07.675Z,101195.75
2022-08-17T11:44:53.715Z,101194.69
2022-08-17T11:48:09.392Z,101196.69
2022-08-17T11:51:08.747Z,101196.38
2022-08-17T11:54:31.854Z,101188.97
2022-08-17T11:57:47.859Z,101185.50
2022-08-17T12:00:49.748Z,101191.47
2022-08-17T12:03:26.686Z,101183.56
2022-08-17T12:06:07.072Z,101184.56
2022-08-17T12:08:43.378Z,101191.25
2022-08-17T12:11:18.958Z,101190.22
2022-08-17T12:14:16.962Z,101190.81
2022-08-17T12:16:46.581Z,101194.03
2022-08-17T12:19:21.735Z,101196.88
2022-08-17T12:21:57.829Z,101193.41
2022-08-17T12:24:50.866Z,101183.47
2022-08-17T12:27:46.144Z,101188.09
2022-08-17T12:30:21.134Z,101187.50
2022-08-17T12:32:51.609Z,101178.31
2022-08-17T12:35:39.291Z,101182.72
2022-08-17T12:38:28.105Z,101173.44
2022-08-17T12:41:25.057Z,101175.88
2022-08-17T12:44:02.735Z,101169.78
2022-08-17T12:46:45.677Z,101174.00
2022-08-17T12:49:24.762Z,101176.13
2022-08-17T12:52:09.441Z,101171.97
2022-08-17T12:54:47.581Z,101174.34
2022-08-17T12:57:24.826Z,101173.06
2022-08-17T12:59:59.628Z,101169.16
2022-08-17T13:02:38.790Z,101165.28
2022-08-17T13:05:17.877Z,101175.00
2022-08-17T13:07:50.154Z,101178.13
2022-08-17T13:10:32.237Z,101178.69
2022-08-17T13:13:07.659Z,101164.75
2022-08-17T13:15:44.797Z,101170.69
2022-08-17T13:18:45.033Z,101168.78
2022-08-17T13:21:26.927Z,101173.31
2022-08-17T13:24:01.425Z,101163.69
2022-08-17T13:26:34.233Z,101162.75
2022-08-17T13:29:09.665Z,101162.28
2022-08-17T13:31:52.817Z,101163.44
2022-08-17T13:35:12.306Z,101171.72
2022-08-17T13:37:35.739Z,101171.38
2022-08-17T13:40:29.812Z,101169.34
2022-08-17T13:42:58.878Z,101164.09
2022-08-17T13:45:50.410Z,101169.63
2022-08-17T13:48:33.536Z,101167.41
2022-08-17T13:51:27.248Z,101162.75
2022-08-17T13:54:04.847Z,101166.72
2022-08-17T13:57:00.746Z,101164.34
2022-08-17T13:59:53.106Z,101169.59
2022-08-17T14:02:28.509Z,101167.34
2022-08-17T14:05:00.520Z,101165.97
2022-08-17T14:07:36.198Z,101166.19
2022-08-17T14:10:11.709Z,101163.22
2022-08-17T14:12:45.141Z,101165.16
2022-08-17T14:15:14.367Z,101148.44
2022-08-17T14:17:42.609Z,101150.25
2022-08-17T14:20:13.692Z,101158.16
2022-08-17T14:22:46.566Z,101152.69
2022-08-17T14:25:16.619Z,101153.28
2022-08-17T14:27:52.951Z,101152.59
2022-08-17T14:30:24.185Z,101155.72
2022-08-17T14:32:53.685Z,101139.28
2022-08-17T14:35:25.888Z,101137.25
2022-08-17T14:37:57.146Z,101134.63
2022-08-17T14:40:27.098Z,101139.47
2022-08-17T14:42:58.472Z,101137.06
2022-08-17T14:45:32.838Z,101138.31
2022-08-17T14:48:05.695Z,101143.38
2022-08-17T14:50:35.527Z,101145.25
2022-08-17T14:53:06.794Z,101135.84
2022-08-17T14:55:36.216Z,101159.66
2022-08-17T14:58:05.136Z,101146.78
2022-08-17T15:00:33.531Z,101155.03
2022-08-17T15:03:03.087Z,101155.81
2022-08-17T15:05:34.379Z,101162.38
2022-08-17T15:08:03.866Z,101153.31
2022-08-17T15:10:33.709Z,101154.94
2022-08-17T15:13:01.966Z,101154.09
2022-08-17T15:15:31.129Z,101145.28
2022-08-17T15:17:59.875Z,101163.09
2022-08-17T15:20:31.058Z,101160.81
2022-08-17T15:22:59.948Z,101169.41
2022-08-17T15:25:31.115Z,101172.19
2022-08-17T15:28:03.309Z,101167.84
2022-08-17T15:30:32.418Z,101162.38
2022-08-17T15:33:02.137Z,101164.19
2022-08-17T15:35:32.762Z,101163.97
2022-08-17T15:38:08.339Z,101154.41
2022-08-17T15:40:40.251Z,101160.84
2022-08-17T15:43:15.938Z,101156.13
2022-08-17T15:45:44.847Z,101155.97
2022-08-17T15:48:42.231Z,101146.53
2022-08-17T15:51:12.935Z,101141.94
2022-08-17T15:53:41.921Z,101146.19
2022-08-17T15:56:11.494Z,101146.22
2022-08-17T15:58:42.230Z,101150.00
2022-08-17T16:01:18.320Z,101149.72
2022-08-17T16:04:04.680Z,101149.72
2022-08-17T16:06:36.796Z,101141.66
2022-08-17T16:09:05.324Z,101150.84
2022-08-17T16:11:35.764Z,101154.47
2022-08-17T16:14:07.419Z,101163.72
2022-08-17T16:16:39.103Z,101185.59
2022-08-17T16:19:11.872Z,101192.19
2022-08-17T16:21:42.835Z,101195.78
2022-08-17T16:24:14.964Z,101197.84
2022-08-17T16:26:44.914Z,101206.03
2022-08-17T16:29:17.169Z,101207.50
2022-08-17T16:31:45.996Z,101213.66
2022-08-17T16:34:20.276Z,101208.78
2022-08-17T16:36:56.733Z,101207.72
2022-08-17T16:39:29.602Z,101203.72
2022-08-17T16:42:03.300Z,101201.75
2022-08-17T16:44:37.142Z,101200.03
2022-08-17T16:47:11.545Z,101193.81
2022-08-17T16:49:44.472Z,101188.22
2022-08-17T16:52:15.479Z,101180.25
2022-08-17T16:55:03.829Z,101181.75
2022-08-17T16:57:32.258Z,101180.84
2022-08-17T17:00:01.807Z,101169.81
2022-08-17T17:02:36.837Z,101172.97
2022-08-17T17:05:14.229Z,101173.94
2022-08-17T17:08:01.622Z,101180.34
2022-08-17T17:10:38.720Z,101182.16
2022-08-17T17:13:12.284Z,101173.38
2022-08-17T17:15:55.081Z,101168.75
2022-08-17T17:18:38.116Z,101160.91
2022-08-17T17:21:13.028Z,101147.00
2022-08-17T17:23:54.349Z,101134.06
2022-08-17T17:26:57.459Z,101122.63
2022-08-17T17:29:48.288Z,101118.44
2022-08-17T17:32:31.923Z,101118.81
2022-08-17T17:35:08.958Z,101122.31
2022-08-17T17:37:43.846Z,101115.28
2022-08-17T17:40:22.707Z,101116.41
2022-08-17T17:42:53.678Z,101115.13
2022-08-17T17:45:30.743Z,101126.72
2022-08-17T17:48:01.115Z,101127.69
2022-08-17T17:50:38.396Z,101130.84
2022-08-17T17:53:18.812Z,101133.88
2022-08-17T17:56:34.954Z,101130.94
2022-08-17T17:59:12.579Z,101136.00
2022-08-17T18:01:50.097Z,101131.19
2022-08-17T18:04:31.917Z,101126.59
2022-08-17T18:07:18.363Z,101122.72
2022-08-17T18:10:00.889Z,101121.97
2022-08-17T18:12:39.688Z,101125.97
2022-08-17T18:15:28.374Z,101128.53
2022-08-17T18:18:28.950Z,101130.56
2022-08-17T18:21:09.917Z,101124.91
2022-08-17T18:23:47.574Z,101129.47
2022-08-17T18:26:38.581Z,101127.41
2022-08-17T18:29:31.812Z,101133.59
2022-08-17T18:32:18.806Z,101138.19
2022-08-17T18:34:50.863Z,101141.66
2022-08-17T18:37:54.258Z,101140.22
2022-08-17T18:40:30.714Z,101139.22
2022-08-17T18:43:15.998Z,101123.94
2022-08-17T18:45:49.341Z,101138.19
2022-08-17T18:48:33.800Z,101135.31
2022-08-17T18:51:39.863Z,101135.31
2022-08-17T18:54:33.321Z,101133.16
2022-08-17T18:57:03.711Z,101152.94
2022-08-17T18:59:40.987Z,101157.78
2022-08-17T19:05:38.734Z,101160.47
2022-08-17T19:08:21.539Z,101165.91
2022-08-17T19:10:54.144Z,101165.53
2022-08-17T19:13:26.678Z,101157.31
2022-08-17T19:16:14.104Z,101150.19
2022-08-17T19:18:48.936Z,101150.94
2022-08-17T19:21:22.372Z,101158.53
2022-08-17T19:23:55.019Z,101151.53
2022-08-17T19:26:53.716Z,101158.06
2022-08-17T19:29:22.376Z,101164.56
2022-08-17T19:31:51.175Z,101165.53
2022-08-17T19:34:33.417Z,101164.47
2022-08-17T19:37:09.058Z,101178.84
2022-08-17T19:39:45.622Z,101177.88
2022-08-17T19:42:26.939Z,101172.31
2022-08-17T19:45:02.889Z,101171.25
2022-08-17T19:47:55.326Z,101168.09
2022-08-17T19:50:38.467Z,101171.47
2022-08-17T19:53:18.627Z,101176.06
2022-08-17T19:55:54.764Z,101176.69
2022-08-17T19:58:37.259Z,101166.88
2022-08-17T20:01:10.842Z,101170.75
2022-08-17T20:03:50.544Z,101174.97
2022-08-17T20:06:24.915Z,101179.94
2022-08-17T20:09:06.138Z,101178.25
2022-08-17T20:11:42.060Z,101181.72
2022-08-17T20:14:17.442Z,101187.53
2022-08-17T20:16:49.324Z,101198.66
2022-08-17T20:19:41.003Z,101200.31
2022-08-17T20:22:14.822Z,101190.41
2022-08-17T20:24:55.124Z,101203.19
2022-08-17T20:27:31.369Z,101204.91
2022-08-17T20:30:11.061Z,101203.56
2022-08-17T20:32:54.216Z,101208.09
2022-08-17T20:35:30.500Z,101211.88
2022-08-17T20:38:04.448Z,101215.56
2022-08-17T20:40:39.462Z,101209.16
2022-08-17T20:43:45.761Z,101216.81
2022-08-17T20:46:32.190Z,101221.97
2022-08-17T20:49:23.933Z,101221.34
2022-08-17T20:52:02.957Z,101226.16
2022-08-17T20:55:06.256Z,101227.16
2022-08-17T20:57:55.171Z,101224.03
2022-08-17T21:00:51.334Z,101234.66
2022-08-17T21:03:51.889Z,101236.19
2022-08-17T21:06:23.866Z,101238.72
2022-08-17T21:08:59.030Z,101243.03
2022-08-17T21:12:04.363Z,101251.03
2022-08-17T21:14:43.338Z,101259.47
2022-08-17T21:17:40.738Z,101255.38
2022-08-17T21:20:25.969Z,101257.56
2022-08-17T21:23:10.667Z,101247.63
2022-08-17T21:26:02.799Z,101239.84
2022-08-17T21:29:00.761Z,101243.59
2022-08-17T21:31:37.700Z,101247.38
2022-08-17T21:34:33.542Z,101247.19
2022-08-17T21:37:32.846Z,101246.69
2022-08-17T21:40:20.127Z,101248.97
2022-08-17T21:42:51.204Z,101249.81
2022-08-17T21:45:25.381Z,101241.94
2022-08-17T21:48:11.758Z,101236.41
2022-08-17T21:50:43.590Z,101238.66
2022-08-17T21:53:25.440Z,101234.88
2022-08-17T21:55:58.256Z,101236.91
2022-08-17T21:58:34.901Z,101235.59
2022-08-17T22:01:23.326Z,101233.44
2022-08-17T22:04:02.156Z,101241.97
2022-08-17T22:06:36.036Z,101240.31
2022-08-17T22:09:08.286Z,101230.31
2022-08-17T22:11:55.741Z,101222.66
2022-08-17T22:14:52.217Z,101231.06
2022-08-17T22:17:23.111Z,101224.44
2022-08-17T22:19:56.772Z,101225.78
2022-08-17T22:22:32.341Z,101224.44
2022-08-17T22:25:06.111Z,101220.81
2022-08-17T22:27:49.662Z,101215.63
2022-08-17T22:30:32.163Z,101234.09
2022-08-17T22:33:05.249Z,101235.28
2022-08-17T22:35:40.638Z,101235.19
2022-08-17T22:38:34.388Z,101237.00
2022-08-17T22:41:52.808Z,101240.91
2022-08-17T22:44:28.326Z,101240.72
2022-08-17T22:47:11.586Z,101236.72
2022-08-17T22:49:53.584Z,101239.75
2022-08-17T22:52:32.705Z,101244.31
2022-08-17T22:55:33.402Z,101240.72
2022-08-17T22:58:29.096Z,101238.47
2022-08-17T23:01:28.758Z,101248.03
2022-08-17T23:04:02.057Z,101239.56
2022-08-17T23:06:32.513Z,101238.09
2022-08-17T23:09:03.559Z,101247.06
2022-08-17T23:11:49.062Z,101238.34
2022-08-17T23:14:20.260Z,101248.13
2022-08-17T23:16:50.901Z,101251.16
2022-08-17T23:19:21.074Z,101248.38
2022-08-17T23:21:55.354Z,101238.94
2022-08-17T23:24:25.629Z,101248.75
2022-08-17T23:26:54.661Z,101244.75
2022-08-17T23:29:23.078Z,101241.50
2022-08-17T23:31:52.899Z,101238.56
2022-08-17T23:34:20.854Z,101236.41
2022-08-17T23:36:53.184Z,101238.47
2022-08-17T23:39:27.884Z,101242.34
2022-08-17T23:41:57.310Z,101238.34
2022-08-17T23:44:25.680Z,101244.47
2022-08-17T23:46:55.710Z,101246.50
2022-08-17T23:49:24.516Z,101250.31
2022-08-17T23:51:54.799Z,101247.13
2022-08-17T23:54:27.796Z,101243.28
2022-08-17T23:56:56.105Z,101247.34
2022-08-17T23:59:24.761Z,101250.91
